Portada
METAR-TAF:

METAR-TAF

Aeroports :

Daniel Field Airport

Augusta, Geòrgia, Estats Units d'Amèrica

latitud: 33-28-01N, longitud: 082-02-19W, altitud: 128 m

Observació

L'informe es va fer fa 28 minuts, a les 10:53 UTC
Vent calma
Temperatura 21°C
Humitat 78%
Pressió 1015 hPa
Visibilitat: 12.9 km
Cel clar

METAR: KDNL 211053Z AUTO 00000KT 8SM CLR 21/17 A2996 RMK AO2 SLP141 T02110167

Hora: 07:21 (11:21 UTC)

Pronòstic

L'informe es va fer fa 48 minuts, a les 10:33 UTC
Pronòstic vàlid del 21 a les 11 UTC al 22 a les 06 UTC
Vent 4 kt amb direcció variable
Visibilitat: 10 km
Cel clar
A partir de les 21 a les 1400 UTC
Vent 5 kt amb direcció variable
Visibilitat: 10 km
Escasses núvols a una alçada de 4000 ft
Núvols disperses a una alçada de 25000 ft

TAF: KDNL 211033Z 2111/2206 VRB04KT P6SM SKC FM211400 VRB05KT P6SM FEW040 SCT250

Observacions i pronòstics meteorològics de més de 4000 aeroports (METAR i TAF).

Les estacions disponibles són els punts grocs i vermells al mapa.

Posi el ratolí al punt desitjat per veure el nom de l'estació.

Feu clic per veure les observacions i els pronòstics meteorològics.

Per canviar el mapa: feu clic els botons verds amb una creu de color negre per apropar; al botó verd amb un guió per allunyar la imatge; o en les fletxes verdes per a mapes adjacents.


METAR-TAF: